Time;durP1;ratioP1;P1;durP2;ratioP2;P2;SDS_P1;SDS_P2;PMS_P1;PMS_P2;Temp;Humidity;BMP_temperature;BMP_pressure;BME280_temperature;BME280_humidity;BME280_pressure;Samples;Min_cycle;Max_cycle;Signal;HPM_P1;HPM_P2
2023/07/02 04:15:57;;;;;;;10.15;3.95;;;17.70;99.90;;;;;;5763506;22;20371;-67
2023/07/02 04:18:22;;;;;;;7.13;4.03;;;17.70;99.90;;;;;;5042403;28;20064;-67
2023/07/02 04:20:48;;;;;;;7.43;3.70;;;17.80;99.90;;;;;;5017777;28;20288;-67
2023/07/02 04:23:14;;;;;;;10.07;3.60;;;17.90;99.90;;;;;;5035912;28;20477;-67
2023/07/02 04:25:39;;;;;;;6.38;3.90;;;17.80;99.90;;;;;;5031691;28;20478;-67
2023/07/02 04:28:05;;;;;;;13.07;4.00;;;17.80;99.90;;;;;;5016241;28;20423;-68
2023/07/02 04:30:30;;;;;;;12.07;3.70;;;17.70;99.90;;;;;;5033524;23;20371;-72
2023/07/02 04:32:56;;;;;;;12.02;4.75;;;17.80;99.90;;;;;;4978762;28;20689;-72
2023/07/02 04:35:21;;;;;;;8.87;3.77;;;17.70;99.90;;;;;;4997613;28;20562;-72
2023/07/02 04:37:47;;;;;;;9.43;3.67;;;17.80;99.90;;;;;;5000038;28;20293;-71
2023/07/02 04:40:13;;;;;;;6.78;4.15;;;17.90;99.90;;;;;;4981187;28;20034;-72
2023/07/02 04:42:41;;;;;;;11.20;4.22;;;18.00;99.90;;;;;;4984143;28;20109;-72
2023/07/02 04:45:08;;;;;;;9.55;3.97;;;18.00;99.90;;;;;;4986859;28;20467;-71
2023/07/02 04:47:34;;;;;;;8.57;4.10;;;18.00;99.90;;;;;;4997741;28;20026;-71
2023/07/02 04:50:00;;;;;;;13.15;5.35;;;18.00;99.90;;;;;;4980012;28;20054;-70
2023/07/02 04:52:26;;;;;;;7.05;4.45;;;18.00;99.90;;;;;;4979096;28;20035;-71
2023/07/02 04:54:51;;;;;;;7.65;3.92;;;18.10;99.90;;;;;;4979290;28;20048;-71
2023/07/02 04:57:17;;;;;;;10.30;4.40;;;18.10;99.90;;;;;;4979076;28;20411;-71
2023/07/02 04:59:43;;;;;;;11.80;4.65;;;18.10;99.90;;;;;;4995788;28;20501;-71
2023/07/02 05:02:09;;;;;;;9.75;4.25;;;18.10;99.90;;;;;;4978245;28;20479;-71
2023/07/02 05:04:35;;;;;;;7.70;3.90;;;18.10;99.90;;;;;;4995948;28;20434;-71
2023/07/02 05:07:01;;;;;;;8.20;3.85;;;18.00;99.90;;;;;;4995941;28;20037;-71
2023/07/02 05:09:26;;;;;;;6.95;3.75;;;18.10;99.90;;;;;;4995845;28;20031;-72
2023/07/02 05:11:52;;;;;;;9.85;4.22;;;18.20;99.90;;;;;;4978344;28;20023;-72
2023/07/02 05:14:17;;;;;;;8.93;3.80;;;18.10;99.90;;;;;;4995728;28;20081;-72
2023/07/02 05:16:43;;;;;;;8.43;4.38;;;18.20;99.90;;;;;;4997356;28;20045;-72
2023/07/02 05:19:09;;;;;;;7.97;4.18;;;18.30;99.90;;;;;;4995638;28;20034;-72
2023/07/02 05:21:34;;;;;;;13.07;4.78;;;18.40;99.90;;;;;;4979705;28;20030;-71
2023/07/02 05:24:00;;;;;;;8.15;4.82;;;18.30;99.90;;;;;;4978606;28;20022;-71
2023/07/02 05:26:26;;;;;;;11.32;5.05;;;18.40;99.90;;;;;;4978783;28;20505;-72
2023/07/02 05:28:52;;;;;;;11.55;4.90;;;18.50;99.90;;;;;;4977917;28;20483;-72
2023/07/02 05:31:18;;;;;;;9.32;4.78;;;18.50;99.90;;;;;;4995206;28;20035;-70
2023/07/02 05:33:43;;;;;;;7.50;4.82;;;18.50;99.90;;;;;;4977457;28;20026;-71
2023/07/02 05:36:09;;;;;;;9.23;4.55;;;18.50;99.90;;;;;;4977942;28;20022;-71
2023/07/02 05:38:34;;;;;;;8.80;4.35;;;18.50;99.90;;;;;;4995396;28;20538;-71
2023/07/02 05:41:01;;;;;;;8.98;4.95;;;18.70;99.90;;;;;;4995375;28;20498;-72
2023/07/02 05:43:27;;;;;;;11.18;4.40;;;18.80;99.90;;;;;;4995587;28;20031;-71
2023/07/02 05:45:52;;;;;;;11.50;4.43;;;18.80;99.90;;;;;;4995568;28;20026;-72
2023/07/02 05:48:18;;;;;;;10.10;4.50;;;18.80;99.90;;;;;;4978031;28;20037;-71
2023/07/02 05:50:43;;;;;;;7.50;4.35;;;18.80;99.90;;;;;;4977814;28;20030;-71
2023/07/02 05:53:10;;;;;;;8.27;4.20;;;18.90;99.90;;;;;;4977221;28;20026;-72
2023/07/02 05:55:36;;;;;;;12.23;4.38;;;18.80;99.90;;;;;;4977465;28;20143;-72
2023/07/02 05:58:02;;;;;;;11.73;4.40;;;18.80;99.90;;;;;;4977495;28;20071;-72
2023/07/02 06:00:31;;;;;;;10.88;4.28;;;18.90;99.90;;;;;;4978052;28;20072;-72
2023/07/02 06:02:56;;;;;;;8.40;4.53;;;18.80;99.90;;;;;;5008981;28;20022;-72
2023/07/02 06:05:22;;;;;;;9.93;4.63;;;19.00;99.90;;;;;;4979296;28;20022;-71
2023/07/02 06:07:47;;;;;;;10.13;4.28;;;19.10;99.90;;;;;;4976098;28;20030;-71
2023/07/02 06:10:13;;;;;;;8.40;4.32;;;19.10;99.90;;;;;;4976265;28;20476;-71
2023/07/02 06:12:38;;;;;;;12.80;4.95;;;19.10;99.90;;;;;;4993713;28;20025;-70
2023/07/02 06:15:04;;;;;;;10.27;3.92;;;19.10;99.90;;;;;;4976791;28;20125;-72
2023/07/02 06:17:30;;;;;;;9.75;4.15;;;19.00;99.90;;;;;;4994821;28;20033;-71
2023/07/02 06:19:57;;;;;;;9.40;4.28;;;18.90;99.90;;;;;;4977424;28;20031;-71
2023/07/02 06:22:23;;;;;;;13.18;5.07;;;19.00;99.90;;;;;;4995639;28;20109;-70
2023/07/02 06:24:48;;;;;;;9.55;4.68;;;19.10;99.90;;;;;;4997145;28;20057;-71
2023/07/02 06:27:14;;;;;;;8.48;4.45;;;19.20;99.90;;;;;;4985443;28;20512;-73
2023/07/02 06:29:40;;;;;;;9.30;4.97;;;19.20;99.90;;;;;;4985545;28;20033;-72
2023/07/02 06:32:06;;;;;;;9.63;4.82;;;19.30;99.90;;;;;;4987010;28;20089;-71
2023/07/02 06:34:31;;;;;;;13.27;5.20;;;19.40;99.90;;;;;;4979470;28;20026;-73
2023/07/02 06:36:57;;;;;;;12.30;5.80;;;19.60;99.90;;;;;;4992956;28;20042;-70
2023/07/02 06:39:22;;;;;;;11.05;5.85;;;19.70;99.90;;;;;;4976830;28;20173;-70
2023/07/02 06:41:48;;;;;;;11.50;6.22;;;19.80;99.90;;;;;;4977433;28;20036;-71
2023/07/02 06:44:14;;;;;;;13.13;6.20;;;19.90;99.90;;;;;;4994726;28;20033;-71
2023/07/02 06:46:39;;;;;;;14.45;6.47;;;20.10;99.90;;;;;;4994406;28;20383;-71
2023/07/02 06:49:05;;;;;;;14.50;6.40;;;20.20;99.90;;;;;;4975711;28;20018;-72
2023/07/02 06:51:30;;;;;;;16.23;7.88;;;20.20;99.90;;;;;;4978177;28;20169;-71
2023/07/02 06:53:56;;;;;;;17.63;7.80;;;20.30;99.90;;;;;;4987201;28;20057;-70
2023/07/02 06:56:21;;;;;;;16.05;8.20;;;20.30;99.90;;;;;;4992025;28;20082;-72
2023/07/02 06:58:47;;;;;;;19.90;9.68;;;20.40;99.90;;;;;;4992313;28;20034;-70
2023/07/02 07:01:13;;;;;;;17.65;9.20;;;20.40;99.90;;;;;;5002506;28;20126;-69
2023/07/02 07:03:38;;;;;;;21.20;9.45;;;20.50;99.90;;;;;;4995246;28;20053;-71
2023/07/02 07:06:04;;;;;;;17.65;9.75;;;20.60;99.90;;;;;;4994441;28;20041;-70
2023/07/02 07:08:29;;;;;;;20.27;10.43;;;20.70;99.90;;;;;;4994238;28;20022;-68
2023/07/02 07:10:55;;;;;;;17.88;10.35;;;20.70;99.90;;;;;;4974014;28;20041;-70
2023/07/02 07:13:21;;;;;;;18.40;10.02;;;20.60;99.90;;;;;;4961884;28;20414;-69
2023/07/02 07:15:46;;;;;;;21.63;10.27;;;20.50;99.90;;;;;;4994277;28;20054;-70
2023/07/02 07:18:12;;;;;;;17.52;10.63;;;20.30;99.90;;;;;;4982318;28;20134;-69
2023/07/02 07:20:40;;;;;;;20.30;10.65;;;20.30;99.90;;;;;;4982740;28;20041;-69
2023/07/02 07:23:06;;;;;;;24.15;11.25;;;20.30;99.90;;;;;;4980790;28;20022;-70
2023/07/02 07:25:31;;;;;;;19.38;11.40;;;20.40;99.90;;;;;;4999909;28;20029;-71
2023/07/02 07:27:59;;;;;;;20.70;11.82;;;20.40;99.90;;;;;;4980649;28;20038;-69
2023/07/02 07:30:25;;;;;;;24.02;11.77;;;20.50;99.90;;;;;;4978396;28;20102;-70
2023/07/02 07:32:51;;;;;;;21.33;12.50;;;20.40;99.90;;;;;;4979074;28;20026;-70
2023/07/02 07:35:18;;;;;;;25.27;12.00;;;20.40;99.90;;;;;;4989016;28;20041;-70
2023/07/02 07:37:44;;;;;;;23.73;11.70;;;20.50;99.90;;;;;;4993570;28;20030;-70
2023/07/02 07:40:10;;;;;;;19.33;11.20;;;20.40;99.90;;;;;;4998089;28;20053;-70
2023/07/02 07:42:36;;;;;;;;;;;20.40;99.90;;;;;;4981782;28;20380;-70
2023/07/02 07:45:03;;;;;;;23.83;12.38;;;20.50;99.90;;;;;;4995966;28;19916;-71
2023/07/02 07:47:28;;;;;;;23.42;12.45;;;20.70;99.90;;;;;;4980428;28;20094;-70
2023/07/02 07:49:54;;;;;;;18.15;11.93;;;21.00;99.90;;;;;;4998052;28;20041;-71
2023/07/02 07:52:20;;;;;;;20.70;12.10;;;21.80;99.90;;;;;;4981526;28;20483;-71
2023/07/02 07:54:46;;;;;;;;;;;22.70;98.90;;;;;;4982239;28;20392;-72
2023/07/02 07:57:11;;;;;;;22.50;14.10;;;23.10;98.10;;;;;;4996826;28;19906;-68
2023/07/02 07:59:37;;;;;;;;;;;23.00;98.00;;;;;;5003384;28;20026;-74
2023/07/02 08:02:03;;;;;;;23.20;13.75;;;22.60;98.60;;;;;;4983428;28;19925;-72
2023/07/02 08:04:28;;;;;;;;;;;22.80;98.70;;;;;;4976977;28;20117;-72
2023/07/02 08:06:54;;;;;;;25.48;14.38;;;22.80;98.30;;;;;;5000096;28;20012;-71
2023/07/02 08:09:20;;;;;;;25.30;14.30;;;22.60;98.50;;;;;;4998601;28;20420;-73
2023/07/02 08:11:46;;;;;;;32.17;15.38;;;22.90;98.00;;;;;;4981390;28;20494;-74
2023/07/02 08:14:12;;;;;;;;;;;23.50;97.30;;;;;;4999259;28;20050;-74
2023/07/02 08:16:38;;;;;;;28.10;14.75;;;25.10;95.50;;;;;;4983358;28;20366;-73
2023/07/02 08:19:03;;;;;;;;;;;26.40;93.70;;;;;;4980812;28;20037;-69
2023/07/02 08:21:29;;;;;;;23.70;14.27;;;26.90;92.40;;;;;;4999498;28;19906;-68
2023/07/02 08:23:54;;;;;;;25.23;15.10;;;27.30;91.50;;;;;;4979605;28;20031;-68
2023/07/02 08:26:20;;;;;;;24.60;14.65;;;28.50;90.20;;;;;;4996880;28;20034;-69
2023/07/02 08:28:45;;;;;;;24.73;15.45;;;29.80;86.60;;;;;;4996650;28;20026;-69
2023/07/02 08:31:11;;;;;;;26.67;15.45;;;29.50;84.80;;;;;;4996282;28;20026;-69
2023/07/02 08:33:36;;;;;;;25.65;15.07;;;29.40;83.80;;;;;;4995656;28;20033;-70
2023/07/02 08:36:02;;;;;;;25.58;15.88;;;29.70;82.50;;;;;;4985248;28;20026;-69
2023/07/02 08:38:28;;;;;;;25.38;15.02;;;30.20;81.10;;;;;;5002129;28;20018;-70
2023/07/02 08:40:53;;;;;;;24.58;16.45;;;30.00;80.20;;;;;;4987999;28;20030;-70
2023/07/02 08:43:19;;;;;;;27.55;16.30;;;29.30;81.40;;;;;;5006170;28;20097;-70
2023/07/02 08:45:45;;;;;;;27.25;16.30;;;29.60;81.50;;;;;;4984812;28;20117;-69
2023/07/02 08:48:11;;;;;;;22.98;15.65;;;30.80;79.90;;;;;;5002215;28;20979;-70
2023/07/02 08:50:37;;;;;;;26.35;16.30;;;31.90;76.70;;;;;;5003160;28;20109;-70
2023/07/02 08:53:02;;;;;;;25.05;16.08;;;31.30;75.60;;;;;;5002995;28;20038;-70
2023/07/02 08:55:29;;;;;;;25.50;16.17;;;31.00;75.70;;;;;;5002457;28;20105;-70
2023/07/02 08:58:00;;;;;;;26.60;16.73;;;30.50;76.00;;;;;;4984135;28;20030;-70
2023/07/02 09:00:26;;;;;;;26.52;16.05;;;31.10;75.10;;;;;;5002777;28;20019;-70
2023/07/02 09:02:52;;;;;;;25.70;17.33;;;31.80;74.70;;;;;;4985547;28;20091;-70
2023/07/02 09:05:18;;;;;;;24.95;15.95;;;32.70;72.90;;;;;;5003333;28;20019;-70
2023/07/02 09:07:45;;;;;;;25.25;15.70;;;32.50;71.70;;;;;;4989956;28;20036;-70
2023/07/02 09:10:11;;;;;;;25.45;16.52;;;32.70;71.80;;;;;;4990678;28;20026;-69
2023/07/02 09:12:38;;;;;;;27.52;16.27;;;33.40;70.50;;;;;;4988081;28;20019;-70
2023/07/02 09:15:08;;;;;;;26.02;16.30;;;33.50;70.00;;;;;;5005491;28;20030;-69
2023/07/02 09:17:36;;;;;;;27.85;17.30;;;31.70;71.10;;;;;;5005527;28;20526;-70
2023/07/02 09:20:06;;;;;;;29.27;16.60;;;30.80;73.50;;;;;;4988695;28;20082;-72
2023/07/02 09:22:31;;;;;;;26.35;16.73;;;29.70;75.30;;;;;;4989780;28;20053;-70
2023/07/02 09:24:58;;;;;;;26.83;18.17;;;28.50;76.90;;;;;;5006214;28;20027;-71
2023/07/02 09:27:35;;;;;;;27.88;17.40;;;27.10;79.50;;;;;;5003709;28;20090;-70
2023/07/02 09:30:05;;;;;;;;;;;28.40;78.90;;;;;;4967266;28;20041;-72
2023/07/02 09:32:32;;;;;;;28.95;17.77;;;30.60;75.00;;;;;;4978949;28;19914;-74
2023/07/02 09:34:58;;;;;;;24.92;16.92;;;30.60;73.40;;;;;;4985396;28;20091;-73
2023/07/02 09:37:24;;;;;;;28.85;17.23;;;29.50;75.50;;;;;;4983013;28;20030;-72
2023/07/02 09:39:54;;;;;;;27.35;17.88;;;28.60;76.00;;;;;;4999923;28;20085;-72
2023/07/02 09:42:21;;;;;;;28.67;17.75;;;28.10;76.20;;;;;;4999043;28;20047;-72
2023/07/02 09:44:47;;;;;;;29.23;18.13;;;27.00;77.30;;;;;;4979763;28;20027;-70
2023/07/02 09:47:15;;;;;;;29.10;17.52;;;26.30;79.50;;;;;;4995962;28;20101;-71
2023/07/02 09:49:53;;;;;;;27.15;16.65;;;28.00;78.90;;;;;;4981067;28;20430;-73
2023/07/02 09:52:19;;;;;;;23.88;16.38;;;29.80;75.10;;;;;;4972575;28;20031;-70
2023/07/02 09:54:45;;;;;;;25.77;16.98;;;31.40;72.40;;;;;;4990754;28;20509;-70
2023/07/02 09:57:10;;;;;;;24.23;15.80;;;32.20;71.00;;;;;;4990582;28;20045;-72
2023/07/02 09:59:41;;;;;;;25.90;16.73;;;32.30;69.90;;;;;;4990688;28;20062;-70
2023/07/02 10:02:09;;;;;;;23.42;16.50;;;33.30;68.10;;;;;;4981432;28;20502;-70
2023/07/02 10:04:46;;;;;;;26.17;16.83;;;33.20;67.30;;;;;;4994202;28;20034;-70
2023/07/02 10:07:12;;;;;;;25.27;16.77;;;31.80;68.20;;;;;;4973715;28;20080;-71
2023/07/02 10:09:45;;;;;;;27.10;18.20;;;31.40;69.70;;;;;;4972970;28;20163;-71
2023/07/02 10:12:20;;;;;;;27.63;17.08;;;32.20;69.00;;;;;;4983559;28;20101;-71
2023/07/02 10:14:48;;;;;;;24.48;16.48;;;33.00;68.20;;;;;;4974721;28;20475;-71
2023/07/02 10:17:34;;;;;;;27.27;16.23;;;33.50;66.60;;;;;;4987358;28;20022;-71
2023/07/02 10:20:06;;;;;;;26.80;17.13;;;34.10;64.90;;;;;;4988196;28;20081;-69
2023/07/02 10:22:47;;;;;;;25.85;16.10;;;33.80;64.70;;;;;;4975913;28;20030;-67
2023/07/02 10:25:25;;;;;;;23.45;15.93;;;33.70;64.90;;;;;;4994046;28;20018;-66
2023/07/02 10:27:50;;;;;;;25.67;15.70;;;34.00;64.70;;;;;;4976692;28;20058;-68
2023/07/02 10:30:16;;;;;;;24.55;15.07;;;34.40;64.20;;;;;;4957391;28;1093634;-67
2023/07/02 10:32:41;;;;;;;24.90;16.70;;;34.00;64.20;;;;;;5016653;23;20201;-64
2023/07/02 10:35:17;;;;;;;24.98;16.33;;;34.40;63.10;;;;;;4952874;28;20066;-69
2023/07/02 10:37:43;;;;;;;24.98;16.70;;;33.50;63.60;;;;;;4965809;28;20023;-69
2023/07/02 10:40:10;;;;;;;23.55;15.68;;;33.00;64.60;;;;;;4962460;28;20157;-70
2023/07/02 10:42:49;;;;;;;22.75;15.80;;;32.60;65.00;;;;;;4965415;28;20015;-69
2023/07/02 10:45:16;;;;;;;22.33;16.17;;;31.80;65.50;;;;;;4937965;29;20424;-69
2023/07/02 10:47:42;;;;;;;25.00;16.85;;;31.70;66.40;;;;;;4954913;29;20038;-68
2023/07/02 10:50:22;;;;;;;22.77;14.93;;;32.80;65.50;;;;;;4956408;28;20027;-70
2023/07/02 10:52:51;;;;;;;22.90;14.98;;;33.20;64.50;;;;;;4954953;28;20425;-68
2023/07/02 10:55:19;;;;;;;21.25;15.20;;;33.70;63.00;;;;;;4972082;28;20037;-69
2023/07/02 10:57:44;;;;;;;22.92;16.77;;;34.10;63.40;;;;;;4971087;28;20031;-69
2023/07/02 11:00:10;;;;;;;24.95;15.93;;;34.10;62.20;;;;;;4973982;28;20030;-69
2023/07/02 11:02:37;;;;;;;21.92;15.60;;;33.80;61.40;;;;;;4969942;28;20514;-69
2023/07/02 11:05:06;;;;;;;24.70;14.93;;;33.40;61.80;;;;;;4965900;28;20109;-69
2023/07/02 11:07:32;;;;;;;24.90;15.48;;;33.30;62.40;;;;;;4972988;28;20387;-69
2023/07/02 11:09:58;;;;;;;23.80;15.30;;;33.30;62.60;;;;;;4972302;28;20096;-68
2023/07/02 11:12:30;;;;;;;23.85;15.43;;;33.00;61.80;;;;;;4953660;28;20138;-68
2023/07/02 11:15:13;;;;;;;30.08;16.98;;;32.40;63.50;;;;;;4955822;28;20034;-69
2023/07/02 11:17:42;;;;;;;29.35;16.98;;;30.90;64.70;;;;;;4965490;28;20046;-70
2023/07/02 11:20:09;;;;;;;26.38;16.42;;;29.50;67.40;;;;;;4971152;28;20049;-68
2023/07/02 11:22:36;;;;;;;27.08;16.25;;;28.70;68.30;;;;;;4971488;28;20022;-69
2023/07/02 11:25:15;;;;;;;25.83;15.82;;;27.90;69.70;;;;;;4974293;28;20074;-69
2023/07/02 11:27:41;;;;;;;27.55;16.20;;;27.70;70.70;;;;;;4974553;28;20368;-69
2023/07/02 11:30:07;;;;;;;29.98;20.15;;;27.40;71.10;;;;;;4974392;28;20035;-70
2023/07/02 11:32:54;;;;;;;33.42;18.35;;;27.00;72.10;;;;;;4973726;28;20066;-69
2023/07/02 11:35:20;;;;;;;28.00;15.32;;;26.70;72.90;;;;;;4974298;28;20023;-70
2023/07/02 11:37:46;;;;;;;28.85;17.02;;;26.40;73.00;;;;;;4974338;28;20042;-71
2023/07/02 11:40:12;;;;;;;27.27;16.48;;;26.20;74.20;;;;;;4957088;28;20030;-70
2023/07/02 11:42:38;;;;;;;28.88;16.38;;;26.20;73.10;;;;;;4956225;28;20030;-69
2023/07/02 11:45:04;;;;;;;;;;;26.20;72.90;;;;;;4969476;28;20038;-69
2023/07/02 11:47:29;;;;;;;23.55;15.48;;;26.20;72.40;;;;;;4960350;28;20000;-69
2023/07/02 11:49:55;;;;;;;;;;;26.40;71.70;;;;;;4956148;28;20069;-69
2023/07/02 11:52:21;;;;;;;25.02;15.80;;;26.40;72.30;;;;;;4969848;28;19949;-68
2023/07/02 11:54:47;;;;;;;25.13;16.42;;;26.30;72.00;;;;;;4947087;28;20038;-68
2023/07/02 11:57:12;;;;;;;23.35;15.18;;;26.10;71.90;;;;;;4973869;28;20073;-67
2023/07/02 11:59:38;;;;;;;;;;;26.20;71.20;;;;;;4972283;28;20098;-67
2023/07/02 12:02:04;;;;;;;25.02;14.48;;;26.30;70.50;;;;;;4971247;28;20374;-68
2023/07/02 12:04:29;;;;;;;24.70;15.63;;;26.40;70.70;;;;;;4957211;29;20035;-66
2023/07/02 12:06:55;;;;;;;;;;;26.50;70.40;;;;;;4956606;28;20027;-66
2023/07/02 12:09:20;;;;;;;23.88;15.10;;;26.60;70.00;;;;;;4967267;28;19906;-66
2023/07/02 12:11:46;;;;;;;24.00;14.35;;;26.80;69.20;;;;;;4977906;28;20026;-67
2023/07/02 12:14:11;;;;;;;;;;;26.70;69.40;;;;;;4978609;28;20031;-66
2023/07/02 12:16:37;;;;;;;24.83;15.57;;;26.50;70.40;;;;;;4978137;28;19912;-66
2023/07/02 12:19:02;;;;;;;;;;;26.20;71.20;;;;;;4978742;28;20556;-67
2023/07/02 12:21:28;;;;;;;27.23;15.75;;;26.00;71.90;;;;;;4977990;28;19910;-67
2023/07/02 12:23:54;;;;;;;;;;;26.00;72.20;;;;;;4978944;28;20390;-65
2023/07/02 12:26:19;;;;;;;24.30;14.20;;;26.10;71.60;;;;;;4978483;28;19906;-67
2023/07/02 12:28:45;;;;;;;24.15;14.85;;;26.20;70.60;;;;;;4979375;28;20018;-66
2023/07/02 12:31:12;;;;;;;;;;;26.30;70.00;;;;;;4979124;28;20046;-67
2023/07/02 12:33:38;;;;;;;;;;;26.40;69.80;;;;;;4978547;28;19913;-67
2023/07/02 12:36:04;;;;;;;21.23;14.23;;;26.40;68.30;;;;;;4978031;28;19910;-67
2023/07/02 12:38:29;;;;;;;24.55;14.10;;;26.40;68.00;;;;;;4960488;28;20023;-66
2023/07/02 12:40:55;;;;;;;;;;;26.40;68.80;;;;;;4977984;28;20043;-67
2023/07/02 12:43:21;;;;;;;24.42;14.60;;;26.20;68.50;;;;;;4976609;28;19910;-66
2023/07/02 12:45:47;;;;;;;23.55;14.15;;;26.30;68.50;;;;;;4977941;28;20110;-67
2023/07/02 12:48:12;;;;;;;;;;;26.40;68.50;;;;;;4979013;28;20506;-67
2023/07/02 12:50:39;;;;;;;25.67;14.68;;;26.30;68.30;;;;;;4960013;28;19956;-66
2023/07/02 12:53:05;;;;;;;25.67;15.07;;;26.40;68.90;;;;;;4977729;28;20538;-66
2023/07/02 12:55:30;;;;;;;;;;;26.40;69.70;;;;;;4977720;28;20031;-66
2023/07/02 12:57:56;;;;;;;24.63;14.18;;;26.50;70.00;;;;;;4977042;28;19934;-66
2023/07/02 13:00:22;;;;;;;;;;;26.60;69.70;;;;;;4977710;28;20468;-66
2023/07/02 13:02:48;;;;;;;25.60;13.70;;;26.60;68.80;;;;;;4976850;28;19913;-66
2023/07/02 13:05:14;;;;;;;22.65;14.32;;;26.50;68.80;;;;;;4977052;28;20026;-66
2023/07/02 13:07:39;;;;;;;;;;;26.40;68.20;;;;;;4977608;28;20026;-66
2023/07/02 13:10:05;;;;;;;26.17;14.65;;;26.30;68.90;;;;;;4978334;28;19906;-66
2023/07/02 13:12:31;;;;;;;26.23;14.95;;;26.30;69.10;;;;;;4977482;28;20093;-66
2023/07/02 13:14:56;;;;;;;;;;;26.40;68.90;;;;;;4978405;28;20424;-66
2023/07/02 13:17:22;;;;;;;22.75;14.15;;;26.50;68.40;;;;;;4979145;28;19956;-66
2023/07/02 13:19:48;;;;;;;27.08;14.40;;;26.60;68.40;;;;;;4976901;28;20035;-66
2023/07/02 13:22:14;;;;;;;22.27;14.45;;;26.60;67.10;;;;;;4976766;28;20364;-66
2023/07/02 13:24:40;;;;;;;;;;;26.50;67.80;;;;;;4977321;28;20041;-67
2023/07/02 13:27:11;;;;;;;22.73;14.55;;;26.50;66.50;;;;;;4977190;28;19960;-66
2023/07/02 13:29:37;;;;;;;22.63;14.18;;;26.40;67.00;;;;;;4977729;28;20047;-67
2023/07/02 13:32:03;;;;;;;;;;;26.30;67.10;;;;;;4977443;28;20073;-65
2023/07/02 13:34:28;;;;;;;26.77;13.98;;;26.30;66.20;;;;;;4977432;28;19932;-67
2023/07/02 13:36:54;;;;;;;;;;;26.20;66.90;;;;;;4979007;28;20109;-67
2023/07/02 13:39:19;;;;;;;22.27;13.43;;;26.20;67.10;;;;;;4974384;28;20001;-69
2023/07/02 13:41:44;;;;;;;;;;;26.20;65.90;;;;;;4959782;28;20107;-64
2023/07/02 13:44:10;;;;;;;18.88;13.07;;;26.20;66.70;;;;;;4976980;28;19906;-66
2023/07/02 13:46:36;;;;;;;24.48;14.57;;;26.40;67.00;;;;;;4960288;28;20027;-66
2023/07/02 13:49:01;;;;;;;18.98;13.50;;;26.50;67.60;;;;;;4978447;28;20026;-66
2023/07/02 13:51:27;;;;;;;;;;;26.50;66.70;;;;;;4961948;28;20062;-66
2023/07/02 13:53:52;;;;;;;22.02;13.30;;;26.50;66.50;;;;;;4960760;28;19912;-65
2023/07/02 13:56:18;;;;;;;;;;;26.50;66.40;;;;;;4978539;28;20033;-66
2023/07/02 13:58:55;;;;;;;22.98;13.13;;;26.50;65.90;;;;;;4979332;28;19910;-66
2023/07/02 14:01:21;;;;;;;21.63;12.88;;;26.60;65.50;;;;;;4978652;28;20034;-67
2023/07/02 14:03:46;;;;;;;;;;;26.70;65.50;;;;;;4961029;28;20073;-67
2023/07/02 14:06:12;;;;;;;19.85;12.63;;;26.80;65.30;;;;;;4978202;28;20337;-66
2023/07/02 14:08:37;;;;;;;27.55;15.48;;;26.90;65.20;;;;;;4979229;28;20046;-66
2023/07/02 14:11:03;;;;;;;25.05;13.57;;;26.80;67.00;;;;;;4962715;28;20035;-65
2023/07/02 14:13:29;;;;;;;22.10;13.15;;;26.70;66.00;;;;;;4978716;28;20030;-65
2023/07/02 14:15:54;;;;;;;;;;;26.70;65.30;;;;;;4976616;28;20027;-66
2023/07/02 14:18:19;;;;;;;23.50;13.27;;;26.70;65.50;;;;;;4976778;28;19906;-65
2023/07/02 14:20:45;;;;;;;;;;;26.70;66.30;;;;;;4977668;28;20027;-66
2023/07/02 14:23:10;;;;;;;22.95;13.05;;;26.80;66.30;;;;;;4977258;28;19906;-66
2023/07/02 14:25:36;;;;;;;;;;;26.90;65.90;;;;;;4977078;28;20031;-66
2023/07/02 14:28:02;;;;;;;27.20;14.70;;;27.00;66.90;;;;;;4975310;28;19969;-65
2023/07/02 14:30:27;;;;;;;;;;;27.00;66.50;;;;;;4958057;28;20395;-67
2023/07/02 14:32:53;;;;;;;23.45;13.52;;;27.00;67.40;;;;;;4977237;28;19914;-66
2023/07/02 14:35:21;;;;;;;25.50;12.88;;;26.90;64.60;;;;;;4959198;28;20025;-66
2023/07/02 14:37:47;;;;;;;21.73;13.18;;;26.80;64.50;;;;;;4959271;28;20046;-67
2023/07/02 14:40:13;;;;;;;;;;;26.80;64.90;;;;;;4977856;28;20114;-67
2023/07/02 14:42:38;;;;;;;23.13;12.73;;;26.80;64.40;;;;;;4976184;28;19907;-68
2023/07/02 14:45:05;;;;;;;21.50;13.30;;;26.70;65.80;;;;;;4959563;28;20027;-67
2023/07/02 14:47:30;;;;;;;21.55;13.02;;;26.70;65.10;;;;;;4958961;28;20029;-67
2023/07/02 14:49:56;;;;;;;;;;;26.80;64.80;;;;;;4960130;28;20030;-67
2023/07/02 14:52:21;;;;;;;21.80;12.25;;;26.80;65.30;;;;;;4976352;28;19912;-67
2023/07/02 14:54:47;;;;;;;;;;;26.80;65.20;;;;;;4976243;28;20033;-66
2023/07/02 14:57:12;;;;;;;20.05;11.63;;;26.90;65.50;;;;;;4976079;28;20304;-67
2023/07/02 14:59:38;;;;;;;20.00;12.40;;;26.90;64.50;;;;;;4975638;28;20031;-67
2023/07/02 15:02:03;;;;;;;20.58;12.68;;;26.90;64.60;;;;;;4965080;28;20032;-71
2023/07/02 15:04:29;;;;;;;22.85;13.73;;;26.90;64.60;;;;;;4938377;29;20028;-72
2023/07/02 15:06:55;;;;;;;20.77;12.38;;;26.90;64.20;;;;;;4956024;29;20023;-66
2023/07/02 15:09:21;;;;;;;17.13;11.80;;;26.80;63.90;;;;;;4955757;29;20028;-66
2023/07/02 15:11:47;;;;;;;20.27;12.57;;;27.00;64.50;;;;;;4955331;28;20053;-67
2023/07/02 15:14:12;;;;;;;23.73;12.73;;;27.00;64.90;;;;;;4953899;29;20476;-66
2023/07/02 15:16:38;;;;;;;22.25;12.50;;;26.80;64.30;;;;;;4955550;29;20106;-66
2023/07/02 15:19:03;;;;;;;23.02;12.73;;;26.80;64.80;;;;;;4955484;29;20057;-66
2023/07/02 15:21:29;;;;;;;21.15;12.77;;;26.90;64.40;;;;;;4955163;28;20042;-67
2023/07/02 15:23:55;;;;;;;21.13;12.02;;;26.90;64.70;;;;;;4956358;29;20473;-67
2023/07/02 15:26:21;;;;;;;;;;;26.90;64.30;;;;;;4956711;29;20029;-67
2023/07/02 15:28:46;;;;;;;20.58;13.23;;;26.80;63.80;;;;;;4954295;29;19907;-66
2023/07/02 15:31:12;;;;;;;;;;;26.70;64.90;;;;;;4941008;28;20038;-67
2023/07/02 15:33:38;;;;;;;20.33;12.05;;;26.60;64.60;;;;;;4973675;28;19913;-67
2023/07/02 15:36:05;;;;;;;20.88;12.95;;;26.50;64.60;;;;;;4974171;28;20101;-68
2023/07/02 15:38:31;;;;;;;22.55;13.02;;;26.40;64.20;;;;;;4974308;28;20431;-68
2023/07/02 15:41:07;;;;;;;;;;;26.30;64.70;;;;;;4975060;28;20065;-67
2023/07/02 15:43:33;;;;;;;19.55;12.70;;;26.40;64.50;;;;;;4960159;28;20005;-68
2023/07/02 15:45:59;;;;;;;;;;;26.40;64.60;;;;;;4960888;28;20499;-67
2023/07/02 15:48:24;;;;;;;25.48;13.07;;;26.30;64.70;;;;;;4978209;28;19906;-67
2023/07/02 15:50:50;;;;;;;21.25;13.27;;;26.30;64.80;;;;;;4960822;28;20035;-66
2023/07/02 15:53:15;;;;;;;21.98;13.05;;;26.20;65.00;;;;;;4978268;28;20029;-67
2023/07/02 15:55:41;;;;;;;22.98;13.13;;;26.10;65.00;;;;;;4978109;28;20043;-66
2023/07/02 15:58:07;;;;;;;;;;;26.20;64.70;;;;;;4978437;28;20038;-66
2023/07/02 16:00:32;;;;;;;25.15;13.25;;;26.10;64.40;;;;;;4977666;28;19917;-66
2023/07/02 16:02:59;;;;;;;20.38;12.65;;;26.10;64.70;;;;;;4977780;28;20023;-67
2023/07/02 16:05:25;;;;;;;23.58;13.18;;;26.10;65.10;;;;;;4977792;28;20015;-66
2023/07/02 16:07:50;;;;;;;;;;;26.10;65.10;;;;;;4978815;28;20073;-67
2023/07/02 16:10:16;;;;;;;21.73;12.65;;;26.10;64.80;;;;;;4977595;28;20294;-67
2023/07/02 16:12:43;;;;;;;;;;;26.00;64.50;;;;;;4978483;28;20078;-66
2023/07/02 16:15:09;;;;;;;24.45;12.80;;;26.00;64.70;;;;;;4978030;28;19906;-67
2023/07/02 16:17:34;;;;;;;;;;;26.00;64.40;;;;;;4977240;28;20077;-66
2023/07/02 16:20:00;;;;;;;20.55;12.43;;;26.00;64.70;;;;;;4977389;28;20006;-66
2023/07/02 16:22:25;;;;;;;;;;;26.00;64.70;;;;;;4977637;28;20387;-66
2023/07/02 16:24:51;;;;;;;22.40;12.38;;;26.00;64.50;;;;;;4977579;28;19952;-69
2023/07/02 16:27:16;;;;;;;22.52;12.80;;;25.90;64.60;;;;;;4977162;28;20464;-67
2023/07/02 16:29:44;;;;;;;22.98;13.35;;;25.90;64.90;;;;;;4976987;28;20055;-68
2023/07/02 16:32:13;;;;;;;22.13;13.23;;;25.80;65.10;;;;;;4977510;28;20480;-68
2023/07/02 16:34:38;;;;;;;21.75;12.85;;;25.80;65.10;;;;;;4977369;28;20472;-68
2023/07/02 16:37:04;;;;;;;;;;;25.70;69.20;;;;;;4960339;28;20038;-72
2023/07/02 16:39:30;;;;;;;21.08;11.90;;;25.80;67.40;;;;;;4977177;28;19917;-71
2023/07/02 16:41:55;;;;;;;;;;;25.60;67.40;;;;;;4977181;28;20031;-72
2023/07/02 16:44:24;;;;;;;19.33;12.45;;;25.70;67.50;;;;;;4976796;28;20331;-73
2023/07/02 16:46:52;;;;;;;27.35;13.18;;;25.70;67.20;;;;;;4976622;28;20027;-71
2023/07/02 16:49:21;;;;;;;23.52;12.98;;;25.80;67.00;;;;;;4959030;28;20027;-71
2023/07/02 16:51:47;;;;;;;22.80;13.10;;;25.70;66.60;;;;;;4959115;28;20026;-69
2023/07/02 16:54:18;;;;;;;;;;;25.70;67.20;;;;;;4976345;28;20031;-67
2023/07/02 16:56:48;;;;;;;29.25;15.73;;;25.60;66.50;;;;;;4976391;28;20000;-68